Time;durP1;ratioP1;P1;durP2;ratioP2;P2;SDS_P1;SDS_P2;PMS_P1;PMS_P2;Temp;Humidity;BMP_temperature;BMP_pressure;BME280_temperature;BME280_humidity;BME280_pressure;Samples;Min_cycle;Max_cycle;Signal;HPM_P1;HPM_P2
2022/09/30 00:00:01;;;;;;;11.57;7.22;;;;;;;10.97;76.75;98633.50;342815;28;1122;-82
2022/09/30 00:00:13;;;;;;;10.18;6.88;;;;;;;10.97;76.98;98633.50;344229;28;767;-83
2022/09/30 00:00:25;;;;;;;9.05;6.80;;;;;;;10.97;76.45;98636.94;344468;28;1008;-83
2022/09/30 00:00:37;;;;;;;9.68;6.82;;;;;;;10.97;76.37;98638.72;344592;28;1072;-84
2022/09/30 00:00:49;;;;;;;10.07;6.90;;;;;;;10.97;76.18;98639.53;345527;28;1282;-84
2022/09/30 00:01:01;;;;;;;9.77;6.97;;;;;;;10.98;76.34;98642.97;344966;28;1056;-84
2022/09/30 00:01:13;;;;;;;10.00;7.38;;;;;;;10.98;76.21;98635.19;344545;28;1106;-82
2022/09/30 00:01:26;;;;;;;9.88;7.38;;;;;;;10.97;76.05;98638.72;343203;28;917;-83
2022/09/30 00:01:38;;;;;;;9.82;6.95;;;;;;;10.98;76.20;98629.97;343390;28;938;-82
2022/09/30 00:01:50;;;;;;;10.52;6.75;;;;;;;10.97;76.44;98630.91;344773;28;1047;-83
2022/09/30 00:02:02;;;;;;;11.38;6.95;;;;;;;10.97;76.52;98638.72;344816;28;986;-82
2022/09/30 00:02:14;;;;;;;11.43;6.95;;;;;;;10.98;76.60;98633.41;342661;29;743;-83
2022/09/30 00:02:26;;;;;;;9.35;6.80;;;;;;;10.96;76.29;98639.63;341996;29;1887;-82
2022/09/30 00:02:38;;;;;;;9.93;6.70;;;;;;;10.96;76.54;98630.03;342316;29;842;-82
2022/09/30 00:02:51;;;;;;;10.52;6.78;;;;;;;10.98;76.45;98635.19;342459;29;925;-83
2022/09/30 00:03:03;;;;;;;10.65;6.70;;;;;;;10.98;76.25;98632.56;342835;28;1248;-83
2022/09/30 00:03:15;;;;;;;10.10;6.65;;;;;;;10.97;76.47;98639.53;343382;28;1091;-84
2022/09/30 00:03:27;;;;;;;9.77;6.45;;;;;;;10.96;76.42;98637.00;343091;28;1183;-83
2022/09/30 00:03:39;;;;;;;9.48;6.47;;;;;;;10.96;76.32;98635.25;343397;28;784;-82
2022/09/30 00:03:52;;;;;;;9.45;6.28;;;;;;;10.95;76.36;98636.19;343356;28;900;-83
2022/09/30 00:04:05;;;;;;;9.93;6.35;;;;;;;10.97;76.70;98634.34;343378;28;945;-82
2022/09/30 00:04:22;;;;;;;9.80;6.50;;;;;;;10.94;76.69;98634.47;342312;28;1012;-82
2022/09/30 00:04:34;;;;;;;9.18;6.32;;;;;;;10.92;76.75;98630.28;342030;29;1116;-83
2022/09/30 00:04:46;;;;;;;9.77;6.30;;;;;;;10.93;76.68;98631.97;342417;29;992;-83
2022/09/30 00:04:58;;;;;;;10.02;6.70;;;;;;;10.92;76.24;98635.47;340924;29;1191;-83
2022/09/30 00:05:10;;;;;;;9.73;6.60;;;;;;;10.92;76.30;98636.31;340721;29;1039;-83
2022/09/30 00:05:22;;;;;;;10.00;6.45;;;;;;;10.92;76.35;98632.88;342095;29;1216;-84
2022/09/30 00:05:34;;;;;;;10.73;6.40;;;;;;;10.93;76.36;98632.81;342300;29;764;-82
2022/09/30 00:05:46;;;;;;;9.70;6.43;;;;;;;10.93;76.21;98637.19;342621;28;734;-82
2022/09/30 00:06:00;;;;;;;10.30;6.40;;;;;;;10.93;76.25;98635.41;342263;29;1348;-83
2022/09/30 00:06:22;;;;;;;10.43;6.10;;;;;;;10.91;76.36;98639.03;342398;28;1265;-82
2022/09/30 00:06:34;;;;;;;9.23;6.30;;;;;;;10.90;76.47;98630.34;342935;28;1203;-82
2022/09/30 00:06:46;;;;;;;9.43;6.28;;;;;;;10.90;76.61;98642.53;343795;28;1027;-83
2022/09/30 00:06:58;;;;;;;9.02;6.20;;;;;;;10.90;76.08;98629.53;344930;28;862;-83
2022/09/30 00:07:10;;;;;;;9.18;6.18;;;;;;;10.90;76.07;98637.31;345270;28;730;-82
2022/09/30 00:07:22;;;;;;;9.50;6.45;;;;;;;10.90;76.11;98637.31;343669;28;1199;-83
2022/09/30 00:07:34;;;;;;;9.60;6.50;;;;;;;10.89;76.21;98638.25;343040;28;1050;-82
2022/09/30 00:07:46;;;;;;;10.48;6.50;;;;;;;10.91;76.53;98639.03;343670;28;928;-83
2022/09/30 00:07:58;;;;;;;11.13;6.32;;;;;;;10.91;76.47;98633.81;343814;28;1128;-83
2022/09/30 00:08:10;;;;;;;11.68;6.30;;;;;;;10.92;76.67;98638.09;343725;28;1084;-83
2022/09/30 00:08:22;;;;;;;9.35;6.50;;;;;;;10.90;76.25;98637.31;344905;28;729;-82
2022/09/30 00:08:36;;;;;;;9.48;6.70;;;;;;;10.90;75.97;98642.53;345147;28;1055;-83
2022/09/30 00:08:48;;;;;;;9.05;7.20;;;;;;;10.90;76.15;98637.31;344889;28;971;-82
2022/09/30 00:09:01;;;;;;;11.13;7.60;;;;;;;10.88;76.18;98637.38;344718;28;1030;-82
2022/09/30 00:09:13;;;;;;;11.02;7.63;;;;;;;10.88;76.08;98639.16;344502;28;979;-82
2022/09/30 00:09:25;;;;;;;9.75;7.32;;;;;;;10.88;75.97;98639.16;345767;28;1040;-83
2022/09/30 00:09:37;;;;;;;10.35;7.10;;;;;;;10.89;76.12;98635.66;346019;28;1056;-85
2022/09/30 00:09:49;;;;;;;12.13;7.50;;;;;;;10.89;75.79;98646.06;346022;28;1056;-83
2022/09/30 00:10:02;;;;;;;13.63;8.02;;;;;;;10.87;76.27;98640.94;346256;28;1154;-83
2022/09/30 00:10:16;;;;;;;13.00;8.35;;;;;;;10.89;76.29;98640.84;345400;28;1189;-82
2022/09/30 00:10:28;;;;;;;12.05;7.75;;;;;;;10.88;75.81;98642.59;345163;28;1254;-83
2022/09/30 00:10:40;;;;;;;11.80;7.72;;;;;;;10.89;76.15;98646.06;344951;28;1097;-84
2022/09/30 00:11:12;;;;;;;12.85;7.68;;;;;;;10.89;75.78;98640.84;343453;28;699;-83
2022/09/30 00:11:30;;;;;;;11.93;7.93;;;;;;;10.88;75.86;98640.00;344809;28;1123;-83
2022/09/30 00:11:42;;;;;;;14.88;8.55;;;;;;;10.88;75.71;98641.75;345497;28;861;-83
2022/09/30 00:11:54;;;;;;;14.30;8.70;;;;;;;10.86;76.20;98641.81;345472;28;1077;-82
2022/09/30 00:12:06;;;;;;;12.98;8.57;;;;;;;10.86;76.03;98638.41;346077;28;1380;-82
2022/09/30 00:12:18;;;;;;;14.07;8.88;;;;;;;10.86;76.05;98646.19;344319;28;1016;-83
2022/09/30 00:12:30;;;;;;;16.42;9.57;;;;;;;10.87;75.91;98638.31;343354;28;1134;-83
2022/09/30 00:12:42;;;;;;;16.58;9.25;;;;;;;10.87;75.86;98642.69;341827;29;1173;-83
2022/09/30 00:12:55;;;;;;;13.52;8.48;;;;;;;10.86;76.24;98641.81;342472;28;1307;-82
2022/09/30 00:13:07;;;;;;;12.70;8.43;;;;;;;10.85;75.99;98641.94;342169;29;1178;-82
2022/09/30 00:13:19;;;;;;;13.93;9.18;;;;;;;10.85;75.96;98647.13;342195;29;780;-83
2022/09/30 00:13:33;;;;;;;16.40;9.77;;;;;;;10.84;76.14;98642.84;342381;29;881;-83
2022/09/30 00:13:47;;;;;;;13.68;9.07;;;;;;;10.84;75.86;98645.44;342588;29;842;-82
2022/09/30 00:14:00;;;;;;;13.25;8.65;;;;;;;10.86;75.90;98641.00;342091;29;807;-82
2022/09/30 00:14:17;;;;;;;15.88;9.50;;;;;;;10.83;75.88;98641.16;341343;29;1186;-82
2022/09/30 00:14:29;;;;;;;14.90;9.65;;;;;;;10.83;75.88;98643.75;342963;28;1184;-82
2022/09/30 00:14:41;;;;;;;14.05;9.68;;;;;;;10.82;75.90;98649.88;344614;28;1076;-82
2022/09/30 00:14:53;;;;;;;15.43;9.57;;;;;;;10.78;76.17;98639.63;344448;28;1160;-83
2022/09/30 00:15:05;;;;;;;16.52;9.18;;;;;;;10.77;76.38;98637.09;344738;28;1037;-83
2022/09/30 00:15:18;;;;;;;15.75;8.85;;;;;;;10.77;76.11;98645.75;344642;28;1016;-83
2022/09/30 00:15:31;;;;;;;13.73;8.63;;;;;;;10.77;76.35;98648.34;346407;28;774;-83
2022/09/30 00:15:45;;;;;;;13.38;8.70;;;;;;;10.76;75.91;98644.03;345136;28;1127;-83
2022/09/30 00:15:59;;;;;;;12.80;8.25;;;;;;;10.74;76.52;98645.88;343148;28;1162;-83
2022/09/30 00:16:13;;;;;;;11.30;7.93;;;;;;;10.75;76.10;98642.38;343390;28;1193;-83
2022/09/30 00:16:28;;;;;;;12.65;7.95;;;;;;;10.73;76.49;98639.00;342262;29;1133;-83
2022/09/30 00:16:40;;;;;;;14.25;8.13;;;;;;;10.72;76.81;98645.09;341559;29;1122;-84
2022/09/30 00:16:52;;;;;;;13.85;7.97;;;;;;;10.72;77.05;98639.06;341761;28;994;-83
2022/09/30 00:17:04;;;;;;;12.13;7.63;;;;;;;10.72;76.55;98650.31;342969;28;1183;-82
2022/09/30 00:17:15;;;;;;;11.13;7.57;;;;;;;10.71;76.36;98643.44;343525;28;729;-83
2022/09/30 00:17:27;;;;;;;11.50;7.68;;;;;;;10.73;76.61;98640.78;343687;28;745;-83
2022/09/30 00:17:39;;;;;;;14.07;8.10;;;;;;;10.73;76.62;98646.81;343171;28;1100;-82
2022/09/30 00:17:51;;;;;;;13.68;8.00;;;;;;;10.73;76.44;98646.81;342628;28;1024;-83
2022/09/30 00:18:03;;;;;;;13.45;8.10;;;;;;;10.74;76.69;98638.06;342837;28;1168;-83
2022/09/30 00:18:15;;;;;;;11.70;8.18;;;;;;;10.75;76.51;98641.53;342447;28;1100;-82
2022/09/30 00:18:27;;;;;;;11.88;8.35;;;;;;;10.75;76.49;98644.97;342465;28;1123;-82
2022/09/30 00:18:41;;;;;;;10.55;7.95;;;;;;;10.75;76.19;98644.97;343459;28;780;-83
2022/09/30 00:18:55;;;;;;;9.88;7.65;;;;;;;10.75;76.39;98644.97;343730;28;1001;-82
2022/09/30 00:19:07;;;;;;;11.75;7.53;;;;;;;10.77;76.43;98648.34;343862;28;798;-83
2022/09/30 00:19:21;;;;;;;13.13;7.30;;;;;;;10.75;76.68;98642.38;341589;29;1226;-82
2022/09/30 00:19:33;;;;;;;13.00;7.20;;;;;;;10.77;76.38;98642.31;342129;29;958;-82
2022/09/30 00:19:45;;;;;;;11.98;7.00;;;;;;;10.77;76.42;98643.13;341673;29;1143;-82
2022/09/30 00:19:57;;;;;;;11.48;7.07;;;;;;;10.78;75.97;98639.63;341891;29;1060;-83
2022/09/30 00:20:09;;;;;;;9.57;6.95;;;;;;;10.81;76.18;98643.84;343457;28;858;-83
2022/09/30 00:20:21;;;;;;;11.02;7.15;;;;;;;10.82;76.19;98639.47;343455;28;1020;-83
2022/09/30 00:20:34;;;;;;;12.48;7.40;;;;;;;10.82;76.26;98642.91;344601;28;745;-82
2022/09/30 00:20:45;;;;;;;12.18;7.47;;;;;;;10.83;76.45;98642.00;344862;28;742;-83
2022/09/30 00:20:58;;;;;;;9.35;7.07;;;;;;;10.83;76.18;98642.00;343567;28;1165;-83
2022/09/30 00:21:11;;;;;;;8.98;6.90;;;;;;;10.84;76.27;98648.88;343474;28;985;-82
2022/09/30 00:21:24;;;;;;;10.43;7.05;;;;;;;10.84;75.98;98642.84;344539;28;776;-83
2022/09/30 00:21:36;;;;;;;11.23;7.10;;;;;;;10.84;76.18;98640.22;344706;28;1164;-82
2022/09/30 00:21:47;;;;;;;9.63;6.68;;;;;;;10.85;76.02;98639.31;344752;28;1169;-82
2022/09/30 00:21:59;;;;;;;8.90;6.43;;;;;;;10.85;76.25;98641.94;345975;28;748;-83
2022/09/30 00:22:11;;;;;;;9.40;6.43;;;;;;;10.85;75.96;98634.97;345541;28;1425;-83
2022/09/30 00:22:23;;;;;;;9.88;6.45;;;;;;;10.85;75.89;98640.16;344346;28;1055;-82
2022/09/30 00:22:35;;;;;;;9.63;6.50;;;;;;;10.85;76.24;98634.97;344906;28;956;-83
2022/09/30 00:22:47;;;;;;;10.32;6.78;;;;;;;10.87;75.73;98645.28;345164;28;853;-83
2022/09/30 00:22:59;;;;;;;10.32;6.80;;;;;;;10.86;75.44;98633.19;345039;28;1067;-83
2022/09/30 00:23:11;;;;;;;9.80;6.80;;;;;;;10.85;75.71;98640.16;343299;28;1056;-82
2022/09/30 00:23:23;;;;;;;9.20;6.90;;;;;;;10.85;75.81;98639.31;343636;28;838;-83
2022/09/30 00:23:37;;;;;;;9.70;6.47;;;;;;;10.85;75.66;98639.31;342224;29;916;-83
2022/09/30 00:23:50;;;;;;;11.10;6.50;;;;;;;10.84;76.03;98637.63;341687;29;1175;-83
2022/09/30 00:24:03;;;;;;;10.43;6.75;;;;;;;10.83;76.27;98635.97;341898;29;1107;-83
2022/09/30 00:24:15;;;;;;;9.63;6.72;;;;;;;10.83;75.80;98635.97;342131;28;1097;-82
2022/09/30 00:24:27;;;;;;;9.23;6.60;;;;;;;10.81;75.75;98632.59;342209;28;1227;-82
2022/09/30 00:24:39;;;;;;;8.38;6.45;;;;;;;10.81;75.98;98637.81;343108;28;947;-82
2022/09/30 00:24:51;;;;;;;8.25;6.30;;;;;;;10.81;75.79;98632.59;343208;28;1103;-83
2022/09/30 00:25:03;;;;;;;8.40;6.50;;;;;;;10.80;75.91;98634.34;343921;28;1110;-82
2022/09/30 00:25:15;;;;;;;9.60;6.57;;;;;;;10.78;76.14;98634.44;345916;28;745;-83
2022/09/30 00:25:27;;;;;;;9.27;6.25;;;;;;;10.79;76.23;98636.09;344813;28;1777;-83
2022/09/30 00:25:39;;;;;;;8.75;6.15;;;;;;;10.81;75.89;98640.41;344823;28;1083;-83
2022/09/30 00:25:58;;;;;;;9.60;6.50;;;;;;;10.81;75.76;98637.81;344721;28;749;-83
2022/09/30 00:26:18;;;;;;;9.38;6.10;;;;;;;10.80;75.94;98629.13;345009;28;837;-82
2022/09/30 00:26:32;;;;;;;8.48;5.80;;;;;;;10.83;75.79;98635.97;344487;28;1311;-83
2022/09/30 00:26:44;;;;;;;8.15;6.10;;;;;;;10.83;75.79;98635.97;345297;28;801;-84
2022/09/30 00:26:56;;;;;;;7.97;6.00;;;;;;;10.81;76.27;98632.59;344393;28;1155;-83
2022/09/30 00:27:08;;;;;;;9.13;5.90;;;;;;;10.79;76.01;98630.91;344031;28;1201;-82
2022/09/30 00:27:20;;;;;;;9.10;5.90;;;;;;;10.81;76.11;98630.84;344099;28;1156;-83
2022/09/30 00:27:32;;;;;;;11.25;6.10;;;;;;;10.80;75.72;98626.53;344585;28;737;-83
2022/09/30 00:27:44;;;;;;;11.45;5.95;;;;;;;10.81;76.38;98632.59;345359;28;1150;-83
2022/09/30 00:27:56;;;;;;;9.98;5.72;;;;;;;10.81;76.10;98635.19;346277;28;991;-84
2022/09/30 00:28:08;;;;;;;8.82;5.88;;;;;;;10.78;76.31;98631.84;345999;28;1019;-83
2022/09/30 00:28:19;;;;;;;7.75;5.85;;;;;;;10.80;76.10;98636.94;346275;28;1125;-84
2022/09/30 00:28:32;;;;;;;6.93;5.50;;;;;;;10.78;76.21;98629.25;346262;28;1043;-84
2022/09/30 00:28:49;;;;;;;7.97;5.50;;;;;;;10.76;76.21;98625.84;347852;28;832;-84
2022/09/30 00:29:02;;;;;;;9.32;5.82;;;;;;;10.79;76.15;98628.31;346171;28;1364;-83
2022/09/30 00:29:14;;;;;;;8.63;5.70;;;;;;;10.80;76.50;98631.72;346571;28;1139;-83
2022/09/30 00:29:26;;;;;;;8.40;5.65;;;;;;;10.81;76.32;98633.44;346349;28;1099;-83
2022/09/30 00:29:38;;;;;;;8.02;5.65;;;;;;;10.81;76.30;98630.00;344436;28;1036;-83
2022/09/30 00:29:50;;;;;;;7.82;5.60;;;;;;;10.81;76.11;98627.41;343422;28;753;-84
2022/09/30 00:30:03;;;;;;;7.75;5.47;;;;;;;10.82;76.42;98623.88;342450;28;1072;-83
2022/09/30 00:30:15;;;;;;;7.47;5.50;;;;;;;10.80;76.02;98631.72;343503;28;989;-83
2022/09/30 00:30:27;;;;;;;8.88;5.70;;;;;;;10.79;76.52;98625.69;343541;28;1125;-83
2022/09/30 00:30:39;;;;;;;10.00;6.10;;;;;;;10.82;76.64;98634.25;343654;28;1020;-83
2022/09/30 00:30:51;;;;;;;10.43;6.15;;;;;;;10.79;76.47;98625.69;342117;29;735;-83
2022/09/30 00:31:06;;;;;;;8.32;5.97;;;;;;;10.79;76.47;98636.09;342422;28;1034;-84
2022/09/30 00:31:20;;;;;;;8.40;6.15;;;;;;;10.79;76.53;98627.47;342760;28;1072;-85
2022/09/30 00:31:34;;;;;;;7.85;5.93;;;;;;;10.78;76.46;98634.44;342140;29;1149;-83
2022/09/30 00:31:46;;;;;;;7.95;5.82;;;;;;;10.79;75.92;98627.47;342292;29;791;-84
2022/09/30 00:31:58;;;;;;;9.10;5.60;;;;;;;10.79;75.96;98630.91;343471;28;995;-83
2022/09/30 00:32:10;;;;;;;8.57;5.40;;;;;;;10.81;75.96;98627.41;341526;29;1223;-84
2022/09/30 00:32:22;;;;;;;8.45;5.45;;;;;;;10.80;75.65;98629.13;341579;29;1025;-83
2022/09/30 00:32:34;;;;;;;8.85;5.90;;;;;;;10.81;75.93;98632.59;342860;28;1100;-83
2022/09/30 00:32:46;;;;;;;8.27;5.65;;;;;;;10.82;75.73;98634.25;343056;28;1059;-84
2022/09/30 00:32:59;;;;;;;8.52;5.57;;;;;;;10.82;75.83;98629.91;343411;28;1092;-83
2022/09/30 00:33:11;;;;;;;9.48;5.47;;;;;;;10.82;76.03;98634.25;343941;28;780;-83
2022/09/30 00:33:23;;;;;;;9.60;5.53;;;;;;;10.82;76.03;98631.66;340847;29;747;-83
2022/09/30 00:33:35;;;;;;;8.13;5.30;;;;;;;10.81;75.64;98633.44;340693;29;1052;-83
2022/09/30 00:34:06;;;;;;;7.93;5.28;;;;;;;10.81;75.74;98628.22;341023;29;1051;-84
2022/09/30 00:34:19;;;;;;;8.80;5.50;;;;;;;10.82;75.47;98629.06;340731;29;1077;-84
2022/09/30 00:34:31;;;;;;;9.30;5.50;;;;;;;10.79;75.87;98636.09;340934;29;1165;-84
2022/09/30 00:34:43;;;;;;;9.40;5.65;;;;;;;10.78;75.92;98631.84;343643;28;1191;-83
2022/09/30 00:34:55;;;;;;;7.38;5.57;;;;;;;10.79;75.61;98633.50;344495;28;1191;-83
2022/09/30 00:35:07;;;;;;;6.82;5.40;;;;;;;10.81;75.88;98630.00;344719;28;1099;-82
2022/09/30 00:35:20;;;;;;;6.55;5.25;;;;;;;10.80;75.43;98631.72;343370;28;1039;-83
2022/09/30 00:35:34;;;;;;;6.93;5.25;;;;;;;10.77;75.66;98637.09;344501;28;1107;-83
2022/09/30 00:35:46;;;;;;;7.40;5.40;;;;;;;10.79;75.68;98633.50;345409;28;775;-83
2022/09/30 00:35:59;;;;;;;7.78;5.38;;;;;;;10.76;75.78;98636.25;343416;28;967;-84
2022/09/30 00:36:12;;;;;;;9.10;5.30;;;;;;;10.77;75.85;98635.34;342186;29;1034;-83
2022/09/30 00:36:24;;;;;;;8.88;5.20;;;;;;;10.76;75.90;98632.81;342575;29;762;-84
2022/09/30 00:36:43;;;;;;;8.25;5.07;;;;;;;10.78;75.99;98628.38;342198;29;703;-84
2022/09/30 00:36:55;;;;;;;7.07;4.97;;;;;;;10.76;76.10;98636.25;342461;29;865;-83
2022/09/30 00:37:07;;;;;;;7.43;4.90;;;;;;;10.76;76.24;98636.25;342711;29;735;-83
2022/09/30 00:37:19;;;;;;;8.15;4.93;;;;;;;10.76;75.88;98633.63;342972;28;1135;-83
2022/09/30 00:37:31;;;;;;;7.50;5.10;;;;;;;10.77;75.98;98630.13;343167;28;1059;-83
2022/09/30 00:37:43;;;;;;;7.47;5.15;;;;;;;10.78;75.48;98638.78;343058;28;1024;-83
2022/09/30 00:37:55;;;;;;;7.43;4.82;;;;;;;10.79;76.20;98630.91;344716;28;733;-83
2022/09/30 00:38:08;;;;;;;8.73;4.97;;;;;;;10.79;75.48;98625.69;343650;28;1018;-83
2022/09/30 00:38:19;;;;;;;9.40;5.03;;;;;;;10.79;75.64;98636.09;342584;29;1116;-83
2022/09/30 00:38:32;;;;;;;8.75;4.90;;;;;;;10.80;75.73;98634.34;342869;28;1150;-83
2022/09/30 00:38:44;;;;;;;7.65;4.97;;;;;;;10.79;75.99;98633.50;343452;28;1027;-85
2022/09/30 00:38:56;;;;;;;7.63;5.20;;;;;;;10.77;75.64;98632.75;343818;28;754;-84
2022/09/30 00:39:17;;;;;;;7.30;5.03;;;;;;;10.79;75.65;98633.50;342209;28;1122;-84
2022/09/30 00:39:30;;;;;;;6.57;4.93;;;;;;;10.80;76.02;98626.53;342172;28;1048;-83
2022/09/30 00:39:42;;;;;;;6.68;5.00;;;;;;;10.79;75.53;98630.91;344077;28;1055;-84
2022/09/30 00:39:54;;;;;;;7.07;5.10;;;;;;;10.82;76.03;98627.31;342275;29;738;-83
2022/09/30 00:40:07;;;;;;;6.97;5.10;;;;;;;10.84;75.46;98630.66;341696;28;1073;-83
2022/09/30 00:40:20;;;;;;;10.77;5.55;;;;;;;10.85;75.66;98628.94;343518;28;960;-82
2022/09/30 00:40:32;;;;;;;11.77;5.45;;;;;;;10.86;76.19;98630.59;344593;28;1015;-84
2022/09/30 00:40:45;;;;;;;9.90;5.38;;;;;;;10.82;76.17;98631.66;343332;28;1191;-84
2022/09/30 00:40:58;;;;;;;8.15;5.50;;;;;;;10.78;76.34;98628.38;343647;28;882;-83
2022/09/30 00:41:10;;;;;;;6.68;5.30;;;;;;;10.74;76.50;98632.88;343492;28;798;-83
2022/09/30 00:41:22;;;;;;;6.55;5.20;;;;;;;10.72;76.53;98626.91;343652;28;1186;-84
2022/09/30 00:41:35;;;;;;;7.22;5.40;;;;;;;10.72;76.78;98636.47;342410;29;1162;-83
2022/09/30 00:41:50;;;;;;;8.07;5.65;;;;;;;10.70;76.62;98631.34;342035;29;730;-84
2022/09/30 00:42:10;;;;;;;8.15;5.65;;;;;;;10.69;76.84;98634.03;342449;29;857;-84
2022/09/30 00:42:22;;;;;;;8.00;5.43;;;;;;;10.67;77.29;98636.72;342618;29;1074;-84
2022/09/30 00:42:33;;;;;;;8.18;5.40;;;;;;;10.65;77.29;98635.94;342963;28;1055;-82
2022/09/30 00:42:46;;;;;;;7.75;5.43;;;;;;;10.66;77.09;98631.59;342721;28;1059;-83
2022/09/30 00:42:59;;;;;;;7.05;5.43;;;;;;;10.67;76.71;98635.88;343471;28;722;-82
2022/09/30 00:43:41;;;;;;;8.48;5.60;;;;;;;10.64;76.89;98636.84;344911;28;1045;-82
2022/09/30 00:43:53;;;;;;;6.28;5.20;;;;;;;10.63;77.42;98636.94;344800;28;1744;-82
2022/09/30 00:44:39;;;;;;;7.05;5.50;;;;;;;10.62;77.24;98633.47;345324;28;757;-84
2022/09/30 00:45:05;;;;;;;7.97;5.60;;;;;;;10.29;78.17;98636.78;346181;28;954;-83
2022/09/30 00:45:18;;;;;;;8.02;5.57;;;;;;;10.13;78.26;98641.00;347113;28;1977;-82
2022/09/30 00:45:31;;;;;;;8.95;5.80;;;;;;;10.17;78.81;98637.38;346138;28;991;-83
2022/09/30 00:45:58;;;;;;;8.43;5.55;;;;;;;10.27;78.55;98638.59;346124;28;845;-83
2022/09/30 00:46:35;;;;;;;9.95;5.68;;;;;;;10.35;78.27;98636.50;345113;28;1052;-83
2022/09/30 00:46:54;;;;;;;7.78;5.50;;;;;;;10.27;77.84;98638.59;343669;28;901;-83
2022/09/30 00:47:37;;;;;;;7.85;5.32;;;;;;;10.17;77.34;98632.16;343508;28;979;-82
2022/09/30 00:48:09;;;;;;;7.20;5.20;;;;;;;10.12;77.61;98644.50;344349;28;1070;-82
2022/09/30 00:48:31;;;;;;;8.85;5.60;;;;;;;10.08;76.99;98643.84;343126;28;1126;-82
2022/09/30 00:48:45;;;;;;;9.10;5.47;;;;;;;10.00;77.22;98643.34;343799;28;948;-83
2022/09/30 00:49:02;;;;;;;6.57;5.25;;;;;;;9.98;76.88;98646.00;343322;28;956;-83
2022/09/30 00:49:20;;;;;;;6.43;5.10;;;;;;;9.94;76.85;98641.88;343632;28;1033;-83
2022/09/30 00:49:32;;;;;;;8.57;5.50;;;;;;;9.92;76.52;98643.72;343323;28;851;-83
2022/09/30 00:49:44;;;;;;;8.65;5.63;;;;;;;9.90;76.23;98647.25;343465;28;962;-83
2022/09/30 00:50:00;;;;;;;9.77;5.60;;;;;;;9.88;76.72;98646.50;343590;28;1048;-83
2022/09/30 00:50:28;;;;;;;14.43;5.65;;;;;;;9.89;76.69;98645.59;342731;28;1004;-82
2022/09/30 00:50:54;;;;;;;8.77;5.50;;;;;;;9.91;76.67;98651.56;343158;28;1320;-84
2022/09/30 00:51:06;;;;;;;10.13;5.60;;;;;;;9.88;76.46;98646.50;346034;28;1052;-83
2022/09/30 00:51:26;;;;;;;10.55;5.72;;;;;;;9.80;76.18;98654.66;346200;28;1202;-82
2022/09/30 00:51:44;;;;;;;8.20;5.68;;;;;;;9.76;76.24;98647.91;346708;28;852;-84
2022/09/30 00:51:57;;;;;;;6.57;5.30;;;;;;;9.73;76.73;98643.69;346161;28;1259;-83
2022/09/30 00:52:08;;;;;;;6.90;5.38;;;;;;;9.73;76.46;98648.88;346421;28;1356;-82
2022/09/30 00:52:20;;;;;;;7.15;5.55;;;;;;;9.70;77.09;98648.16;345044;28;815;-83
2022/09/30 00:52:33;;;;;;;8.07;5.60;;;;;;;9.67;77.28;98649.16;345210;28;1179;-83
2022/09/30 00:52:51;;;;;;;10.25;5.70;;;;;;;9.58;77.57;98647.81;344956;28;1041;-82
2022/09/30 00:53:18;;;;;;;11.68;5.75;;;;;;;9.57;77.71;98648.72;344968;28;845;-83
2022/09/30 00:53:38;;;;;;;7.45;5.50;;;;;;;9.50;77.45;98655.09;344551;28;1052;-82
2022/09/30 00:54:01;;;;;;;7.28;5.57;;;;;;;9.46;77.57;98656.16;345211;28;1182;-82
2022/09/30 00:54:20;;;;;;;7.95;5.47;;;;;;;9.41;77.66;98658.09;346174;28;1190;-83
2022/09/30 00:54:33;;;;;;;8.25;5.80;;;;;;;9.36;77.94;98654.88;347631;28;854;-83
2022/09/30 00:54:45;;;;;;;7.97;5.70;;;;;;;9.31;77.71;98656.81;346026;28;1053;-83
2022/09/30 00:55:01;;;;;;;8.82;5.72;;;;;;;9.26;77.91;98654.44;344657;28;1121;-83
2022/09/30 00:55:38;;;;;;;8.20;5.60;;;;;;;9.21;77.89;98653.78;345339;28;1023;-83
2022/09/30 00:56:09;;;;;;;6.88;5.57;;;;;;;9.22;77.89;98652.03;345213;28;958;-83
2022/09/30 00:56:24;;;;;;;8.55;5.50;;;;;;;9.12;77.94;98660.19;344810;28;1054;-83
2022/09/30 00:56:41;;;;;;;9.27;5.60;;;;;;;9.15;78.24;98657.47;344396;28;934;-83
2022/09/30 00:56:56;;;;;;;8.35;5.35;;;;;;;9.16;78.07;98660.91;345321;28;866;-83
2022/09/30 00:57:08;;;;;;;7.80;5.40;;;;;;;9.11;77.79;98655.91;346808;28;1060;-83
2022/09/30 00:57:20;;;;;;;8.18;5.75;;;;;;;9.08;77.90;98655.22;344828;28;1251;-83
2022/09/30 00:57:34;;;;;;;6.95;5.65;;;;;;;9.08;78.16;98658.66;345205;28;936;-84
2022/09/30 00:57:46;;;;;;;6.50;5.50;;;;;;;9.05;77.95;98656.16;344970;28;1027;-83
2022/09/30 00:58:00;;;;;;;7.60;5.40;;;;;;;9.03;78.18;98657.16;344834;28;1202;-82
2022/09/30 00:58:19;;;;;;;8.57;5.60;;;;;;;9.01;78.34;98657.22;343303;28;1181;-83
2022/09/30 00:58:52;;;;;;;6.40;5.30;;;;;;;8.96;78.28;98659.16;343358;28;1237;-82
2022/09/30 00:59:17;;;;;;;8.18;5.78;;;;;;;8.96;78.54;98656.56;345163;28;1059;-83
2022/09/30 00:59:36;;;;;;;9.32;5.60;;;;;;;8.98;78.61;98667.72;345115;28;858;-83
2022/09/30 00:59:51;;;;;;;7.38;5.50;;;;;;;8.98;78.13;98662.53;344788;28;1175;-83
2022/09/30 01:00:04;;;;;;;8.13;5.63;;;;;;;8.96;78.42;98661.75;345246;28;797;-82
2022/09/30 01:00:16;;;;;;;8.45;5.57;;;;;;;8.97;78.64;98663.44;344552;28;1016;-83
2022/09/30 01:00:27;;;;;;;7.38;5.65;;;;;;;8.96;78.74;98661.75;345310;28;752;-82
2022/09/30 01:00:40;;;;;;;7.22;5.68;;;;;;;8.98;78.56;98657.34;344821;28;976;-83
2022/09/30 01:00:52;;;;;;;8.75;5.82;;;;;;;8.99;78.98;98657.28;344746;28;733;-82
2022/09/30 01:01:04;;;;;;;8.52;5.70;;;;;;;9.00;78.87;98658.97;344695;28;1028;-83
2022/09/30 01:01:18;;;;;;;8.63;5.90;;;;;;;9.04;78.71;98659.69;345114;28;775;-82
2022/09/30 01:01:30;;;;;;;8.32;5.82;;;;;;;9.07;78.36;98664.72;345707;28;768;-83
2022/09/30 01:01:43;;;;;;;7.53;5.57;;;;;;;9.10;78.35;98663.78;346432;28;774;-82
2022/09/30 01:01:55;;;;;;;7.10;5.57;;;;;;;9.12;78.35;98661.97;344501;28;1030;-83
2022/09/30 01:02:09;;;;;;;7.95;5.75;;;;;;;9.16;78.78;98663.50;345325;28;1378;-82
2022/09/30 01:02:22;;;;;;;8.18;5.60;;;;;;;9.20;78.42;98657.28;346193;28;1142;-82
2022/09/30 01:02:35;;;;;;;7.38;5.40;;;;;;;9.23;78.15;98658.91;344932;28;755;-82
2022/09/30 01:02:48;;;;;;;7.25;5.55;;;;;;;9.27;78.21;98663.03;345143;28;860;-82
2022/09/30 01:03:02;;;;;;;7.30;5.65;;;;;;;9.26;77.79;98658.78;344848;28;1003;-82
2022/09/30 01:03:14;;;;;;;7.18;5.47;;;;;;;9.30;78.01;98660.31;344767;28;809;-83
2022/09/30 01:03:32;;;;;;;6.63;5.15;;;;;;;9.33;77.65;98655.00;343457;28;943;-82
2022/09/30 01:03:48;;;;;;;6.95;4.95;;;;;;;9.37;77.79;98659.13;343617;28;852;-83
2022/09/30 01:04:05;;;;;;;9.70;5.35;;;;;;;9.36;77.58;98654.88;345075;28;892;-82
2022/09/30 01:04:21;;;;;;;9.43;5.45;;;;;;;9.37;77.62;98656.53;344818;28;1192;-83
2022/09/30 01:04:34;;;;;;;7.13;5.20;;;;;;;9.40;77.22;98652.06;344962;28;1073;-82
2022/09/30 01:04:46;;;;;;;7.63;5.18;;;;;;;9.43;77.31;98655.44;344202;28;768;-83
2022/09/30 01:04:58;;;;;;;7.65;5.03;;;;;;;9.44;77.49;98657.09;345200;28;753;-82
2022/09/30 01:05:11;;;;;;;7.95;5.25;;;;;;;9.42;77.16;98652.00;345050;28;733;-82
2022/09/30 01:05:25;;;;;;;7.43;5.45;;;;;;;9.41;77.33;98655.50;343577;28;1013;-82
2022/09/30 01:05:37;;;;;;;11.32;5.60;;;;;;;9.43;77.31;98661.47;344928;28;1266;-83
2022/09/30 01:05:50;;;;;;;11.15;5.55;;;;;;;9.44;77.00;98655.38;344045;28;1161;-82
2022/09/30 01:06:03;;;;;;;8.52;5.22;;;;;;;9.44;77.05;98652.78;344657;28;1121;-82
2022/09/30 01:06:17;;;;;;;9.95;5.43;;;;;;;9.43;76.87;98665.81;344423;28;1060;-83
2022/09/30 01:06:29;;;;;;;10.23;5.65;;;;;;;9.41;77.21;98655.50;343056;28;1018;-82
2022/09/30 01:06:42;;;;;;;10.35;5.63;;;;;;;9.40;77.18;98656.44;342661;29;1067;-83
2022/09/30 01:06:58;;;;;;;8.20;5.25;;;;;;;9.41;77.18;98663.28;343763;28;1071;-83
2022/09/30 01:07:11;;;;;;;8.18;5.15;;;;;;;9.42;76.82;98654.59;343538;28;829;-83
2022/09/30 01:07:24;;;;;;;8.30;5.50;;;;;;;9.43;77.02;98656.28;344094;28;1914;-83
2022/09/30 01:07:36;;;;;;;7.97;5.47;;;;;;;9.45;76.58;98656.22;344430;28;1059;-83
2022/09/30 01:07:49;;;;;;;7.38;5.20;;;;;;;9.44;77.22;98652.78;345031;28;791;-83
2022/09/30 01:08:04;;;;;;;7.43;5.10;;;;;;;9.46;76.71;98663.09;345159;28;916;-83
2022/09/30 01:08:18;;;;;;;6.75;4.90;;;;;;;9.41;76.65;98658.09;344921;28;1013;-84
2022/09/30 01:08:34;;;;;;;7.22;5.10;;;;;;;9.34;76.94;98657.53;345336;28;827;-82
2022/09/30 01:08:46;;;;;;;8.05;5.38;;;;;;;9.32;77.00;98653.31;347516;28;856;-82